Time;durP1;ratioP1;P1;durP2;ratioP2;P2;SDS_P1;SDS_P2;PMS_P1;PMS_P2;Temp;Humidity;BMP_temperature;BMP_pressure;BME280_temperature;BME280_humidity;BME280_pressure;Samples;Min_cycle;Max_cycle;Signal;HPM_P1;HPM_P2
2021/11/13 00:01:04;;;;;;;5.63;5.11;;;;;;;19.23;52.10;100510.64;;;;-58
2021/11/13 00:04:04;;;;;;;5.37;4.85;;;;;;;19.23;52.15;100518.60;;;;-59
2021/11/13 00:07:04;;;;;;;5.65;5.01;;;;;;;19.20;52.22;100513.06;;;;-59
2021/11/13 00:10:04;;;;;;;6.59;4.88;;;;;;;19.18;52.07;100519.87;;;;-51
2021/11/13 00:13:05;;;;;;;5.57;4.86;;;;;;;19.16;52.21;100521.31;;;;-51
2021/11/13 00:16:04;;;;;;;5.91;5.00;;;;;;;19.14;52.26;100512.12;;;;-58
2021/11/13 00:19:04;;;;;;;5.60;4.95;;;;;;;19.13;52.16;100514.31;;;;-59
2021/11/13 00:22:04;;;;;;;5.32;4.82;;;;;;;19.11;52.11;100514.67;;;;-61
2021/11/13 00:25:04;;;;;;;5.51;4.91;;;;;;;19.10;52.14;100515.01;;;;-59
2021/11/13 00:28:04;;;;;;;5.27;4.77;;;;;;;19.09;52.37;100518.80;;;;-58
2021/11/13 00:31:04;;;;;;;5.91;5.06;;;;;;;19.06;52.34;100518.54;;;;-51
2021/11/13 00:34:04;;;;;;;5.55;4.98;;;;;;;19.06;52.46;100522.03;;;;-51
2021/11/13 00:37:04;;;;;;;5.41;4.91;;;;;;;19.04;52.26;100518.69;;;;-51
2021/11/13 00:40:04;;;;;;;5.35;4.85;;;;;;;19.03;52.38;100514.36;;;;-51
2021/11/13 00:43:04;;;;;;;6.06;4.86;;;;;;;19.01;52.51;100525.33;;;;-51
2021/11/13 00:46:04;;;;;;;5.56;4.77;;;;;;;18.99;52.58;100517.11;;;;-51
2021/11/13 00:49:05;;;;;;;6.09;4.89;;;;;;;18.97;52.38;100510.03;;;;-51
2021/11/13 00:52:04;;;;;;;5.46;4.75;;;;;;;18.96;52.40;100506.75;;;;-51
2021/11/13 00:55:04;;;;;;;5.53;4.96;;;;;;;18.94;52.26;100509.00;;;;-51
2021/11/13 00:58:04;;;;;;;5.27;4.71;;;;;;;18.94;52.41;100515.34;;;;-51
2021/11/13 01:01:04;;;;;;;5.28;4.77;;;;;;;18.91;52.45;100505.91;;;;-51
2021/11/13 01:04:04;;;;;;;5.41;4.85;;;;;;;18.91;52.50;100499.09;;;;-51
2021/11/13 01:07:04;;;;;;;5.16;4.66;;;;;;;18.88;52.58;100501.50;;;;-51
2021/11/13 01:10:04;;;;;;;5.46;4.71;;;;;;;18.87;52.30;100495.31;;;;-51
2021/11/13 01:13:04;;;;;;;5.63;5.06;;;;;;;18.86;52.44;100490.82;;;;-51
2021/11/13 01:16:04;;;;;;;5.32;4.82;;;;;;;18.85;52.60;100487.91;;;;-51
2021/11/13 01:19:04;;;;;;;5.19;4.65;;;;;;;18.85;52.36;100484.82;;;;-51
2021/11/13 01:22:04;;;;;;;5.25;4.75;;;;;;;18.83;52.40;100481.95;;;;-52
2021/11/13 01:25:04;;;;;;;5.14;4.64;;;;;;;18.82;52.66;100482.09;;;;-50
2021/11/13 01:28:04;;;;;;;5.33;4.83;;;;;;;18.80;52.54;100485.19;;;;-50
2021/11/13 01:31:06;;;;;;;4.98;4.48;;;;;;;18.80;52.46;100484.34;;;;-51
2021/11/13 01:34:04;;;;;;;5.06;4.56;;;;;;;18.77;52.50;100492.91;;;;-51
2021/11/13 01:37:04;;;;;;;5.09;4.59;;;;;;;18.76;52.61;100486.58;;;;-51
2021/11/13 01:40:04;;;;;;;5.45;4.93;;;;;;;18.75;52.59;100481.77;;;;-51
2021/11/13 01:43:04;;;;;;;5.28;4.71;;;;;;;18.73;52.75;100475.24;;;;-51
2021/11/13 01:46:04;;;;;;;4.78;4.29;;;;;;;18.73;52.62;100471.52;;;;-52
2021/11/13 01:49:04;;;;;;;5.21;4.69;;;;;;;18.72;52.73;100482.72;;;;-52
2021/11/13 01:52:04;;;;;;;5.08;4.58;;;;;;;18.71;52.50;100469.55;;;;-51
2021/11/13 01:55:04;;;;;;;4.93;4.43;;;;;;;18.68;52.77;100467.98;;;;-51
2021/11/13 01:58:04;;;;;;;5.13;4.63;;;;;;;18.68;52.61;100465.22;;;;-51
2021/11/13 02:01:04;;;;;;;5.21;4.60;;;;;;;18.67;52.62;100459.92;;;;-51
2021/11/13 02:04:04;;;;;;;5.17;4.39;;;;;;;18.66;52.75;100459.69;;;;-51
2021/11/13 02:07:04;;;;;;;5.27;4.65;;;;;;;18.64;52.87;100453.33;;;;-51
2021/11/13 02:10:04;;;;;;;5.13;4.63;;;;;;;18.64;52.90;100455.69;;;;-51
2021/11/13 02:13:04;;;;;;;5.17;4.67;;;;;;;18.63;52.92;100451.13;;;;-51
2021/11/13 02:16:04;;;;;;;6.49;4.61;;;;;;;18.62;52.90;100452.91;;;;-51
2021/11/13 02:19:04;;;;;;;5.33;4.83;;;;;;;18.61;52.90;100462.13;;;;-52
2021/11/13 02:22:04;;;;;;;4.87;4.39;;;;;;;18.60;52.83;100468.80;;;;-50
2021/11/13 02:25:04;;;;;;;4.65;4.23;;;;;;;18.58;52.91;100462.93;;;;-51
2021/11/13 02:28:04;;;;;;;4.84;4.36;;;;;;;18.58;52.75;100449.95;;;;-51
2021/11/13 02:31:04;;;;;;;4.77;4.27;;;;;;;18.57;53.03;100446.02;;;;-51
2021/11/13 02:34:04;;;;;;;4.80;4.31;;;;;;;18.56;52.83;100442.78;;;;-52
2021/11/13 02:37:04;;;;;;;4.52;4.12;;;;;;;18.56;52.97;100441.97;;;;-51
2021/11/13 02:40:04;;;;;;;4.85;4.34;;;;;;;18.55;52.91;100440.97;;;;-52
2021/11/13 02:43:04;;;;;;;4.77;4.33;;;;;;;18.54;53.03;100446.17;;;;-59
2021/11/13 02:46:04;;;;;;;4.83;4.37;;;;;;;18.53;52.84;100443.91;;;;-59
2021/11/13 02:49:04;;;;;;;4.90;4.41;;;;;;;18.52;53.04;100450.05;;;;-60
2021/11/13 02:52:04;;;;;;;4.66;4.26;;;;;;;18.52;52.92;100445.34;;;;-58
2021/11/13 02:55:04;;;;;;;4.79;4.26;;;;;;;18.51;53.06;100442.02;;;;-58
2021/11/13 02:58:04;;;;;;;4.81;4.28;;;;;;;18.49;53.11;100450.44;;;;-58
2021/11/13 03:01:04;;;;;;;4.65;4.23;;;;;;;18.48;53.04;100458.28;;;;-58
2021/11/13 03:04:04;;;;;;;4.79;4.31;;;;;;;18.48;53.09;100454.71;;;;-59
2021/11/13 03:07:03;;;;;;;4.87;4.37;;;;;;;18.47;53.08;100450.33;;;;-58
2021/11/13 03:10:04;;;;;;;4.62;4.17;;;;;;;18.47;53.01;100455.69;;;;-58
2021/11/13 03:13:04;;;;;;;4.37;3.97;;;;;;;18.46;53.04;100453.30;;;;-58
2021/11/13 03:16:04;;;;;;;4.89;4.31;;;;;;;18.45;53.06;100445.84;;;;-59
2021/11/13 03:19:04;;;;;;;4.95;4.45;;;;;;;18.45;52.92;100436.77;;;;-59
2021/11/13 03:22:04;;;;;;;4.73;4.21;;;;;;;18.44;53.11;100443.87;;;;-60
2021/11/13 03:25:04;;;;;;;4.43;4.03;;;;;;;18.44;53.06;100442.98;;;;-58
2021/11/13 03:28:04;;;;;;;4.61;4.19;;;;;;;18.42;53.14;100440.12;;;;-61
2021/11/13 03:31:04;;;;;;;4.79;4.36;;;;;;;18.41;53.11;100431.20;;;;-58
2021/11/13 03:34:04;;;;;;;4.75;4.29;;;;;;;18.41;53.09;100433.87;;;;-51
2021/11/13 03:37:04;;;;;;;4.37;3.97;;;;;;;18.40;53.17;100423.79;;;;-51
2021/11/13 03:55:04;;;;;;;4.81;4.25;;;;;;;18.36;53.19;100400.09;;;;-59
2021/11/13 03:58:04;;;;;;;4.83;4.29;;;;;;;18.35;53.13;100398.44;;;;-59
2021/11/13 04:01:04;;;;;;;4.35;3.95;;;;;;;18.34;53.12;100398.93;;;;-58
2021/11/13 04:04:04;;;;;;;4.41;3.99;;;;;;;18.34;53.17;100400.36;;;;-58
2021/11/13 04:07:04;;;;;;;4.67;4.25;;;;;;;18.32;53.10;100396.20;;;;-60
2021/11/13 04:10:06;;;;;;;4.27;3.85;;;;;;;18.33;53.18;100399.31;;;;-58
2021/11/13 04:13:05;;;;;;;4.75;4.14;;;;;;;18.32;53.13;100396.94;;;;-60
2021/11/13 04:16:04;;;;;;;4.47;4.03;;;;;;;18.32;53.13;100398.23;;;;-58
2021/11/13 04:19:09;;;;;;;4.42;4.02;;;;;;;18.30;53.18;100399.53;;;;-58
2021/11/13 04:50:04;;;;;;;4.37;3.97;;;;;;;18.24;53.20;100412.12;;;;-51
2021/11/13 04:53:04;;;;;;;3.99;3.61;;;;;;;18.24;53.13;100396.11;;;;-51
2021/11/13 04:56:04;;;;;;;4.23;3.83;;;;;;;18.24;53.18;100393.92;;;;-51
2021/11/13 04:59:04;;;;;;;4.19;3.79;;;;;;;18.23;53.14;100397.17;;;;-59
2021/11/13 05:02:04;;;;;;;4.37;3.97;;;;;;;18.22;53.11;100397.34;;;;-59
2021/11/13 05:05:04;;;;;;;4.17;3.78;;;;;;;18.22;53.15;100397.06;;;;-58
2021/11/13 05:08:04;;;;;;;4.15;3.75;;;;;;;18.22;53.19;100394.23;;;;-51
2021/11/13 05:11:04;;;;;;;4.13;3.73;;;;;;;18.20;53.19;100400.16;;;;-51
2021/11/13 05:14:04;;;;;;;4.36;3.96;;;;;;;18.20;53.15;100385.97;;;;-51
2021/11/13 05:17:04;;;;;;;3.97;3.61;;;;;;;18.20;53.20;100379.36;;;;-51
2021/11/13 05:20:07;;;;;;;4.10;3.70;;;;;;;18.18;53.19;100381.88;;;;-51
2021/11/13 05:23:04;;;;;;;4.09;3.69;;;;;;;18.18;53.16;100377.09;;;;-51
2021/11/13 05:38:04;;;;;;;8.62;5.65;;;;;;;18.14;49.01;100390.44;;;;-52
2021/11/13 05:41:04;;;;;;;9.14;6.59;;;;;;;17.66;46.71;100381.07;;;;-47
2021/11/13 05:44:04;;;;;;;7.23;5.66;;;;;;;17.69;49.50;100363.13;;;;-46
2021/11/13 05:47:04;;;;;;;7.34;5.35;;;;;;;17.74;50.36;100365.97;;;;-60
2021/11/13 05:50:04;;;;;;;7.18;5.31;;;;;;;17.79;50.71;100384.17;;;;-58
2021/11/13 05:53:04;;;;;;;5.97;5.21;;;;;;;17.82;50.98;100383.87;;;;-59
2021/11/13 05:56:04;;;;;;;5.52;4.94;;;;;;;17.83;51.10;100378.98;;;;-58
2021/11/13 05:59:04;;;;;;;5.55;4.78;;;;;;;17.85;51.27;100376.82;;;;-51
2021/11/13 06:02:04;;;;;;;5.52;4.74;;;;;;;17.86;51.42;100378.11;;;;-51
2021/11/13 06:05:04;;;;;;;5.55;4.68;;;;;;;17.89;51.35;100378.24;;;;-48
2021/11/13 06:08:04;;;;;;;5.80;4.57;;;;;;;17.90;51.46;100369.97;;;;-48
2021/11/13 06:11:04;;;;;;;4.89;4.36;;;;;;;17.92;51.45;100374.45;;;;-48
2021/11/13 06:14:04;;;;;;;6.85;4.18;;;;;;;17.92;51.52;100380.86;;;;-48
2021/11/13 06:17:04;;;;;;;6.83;4.36;;;;;;;17.92;51.53;100385.48;;;;-50
2021/11/13 06:20:04;;;;;;;5.43;4.39;;;;;;;17.92;51.70;100381.75;;;;-51
2021/11/13 06:23:04;;;;;;;4.89;4.30;;;;;;;17.92;51.81;100385.23;;;;-53
2021/11/13 06:26:04;;;;;;;4.87;4.38;;;;;;;17.94;51.82;100378.70;;;;-50
2021/11/13 06:29:04;;;;;;;5.74;4.59;;;;;;;17.93;51.77;100376.42;;;;-50
2021/11/13 06:32:04;;;;;;;5.07;4.28;;;;;;;17.95;51.95;100370.69;;;;-47
2021/11/13 06:35:03;;;;;;;4.94;4.39;;;;;;;17.95;51.87;100372.48;;;;-61
2021/11/13 06:38:04;;;;;;;4.67;4.17;;;;;;;17.95;51.97;100368.50;;;;-59
2021/11/13 06:41:04;;;;;;;5.78;4.28;;;;;;;17.95;52.05;100377.75;;;;-61
2021/11/13 06:44:04;;;;;;;4.54;3.99;;;;;;;17.97;52.04;100373.06;;;;-54
2021/11/13 06:47:04;;;;;;;4.26;3.85;;;;;;;17.97;52.02;100374.12;;;;-54
2021/11/13 06:50:04;;;;;;;4.55;4.07;;;;;;;18.01;52.04;100379.25;;;;-53
2021/11/13 06:53:04;;;;;;;4.45;3.99;;;;;;;18.03;51.92;100379.92;;;;-54
2021/11/13 06:56:04;;;;;;;4.04;3.48;;;;;;;18.06;52.10;100383.37;;;;-54
2021/11/13 06:59:04;;;;;;;5.59;3.77;;;;;;;18.09;52.27;100396.13;;;;-54
2021/11/13 07:02:04;;;;;;;4.83;3.65;;;;;;;18.14;52.44;100408.36;;;;-54
2021/11/13 07:05:04;;;;;;;4.76;3.51;;;;;;;18.16;52.57;100401.66;;;;-54
2021/11/13 07:08:04;;;;;;;4.17;3.49;;;;;;;18.21;52.53;100415.73;;;;-54
2021/11/13 07:11:04;;;;;;;4.58;3.62;;;;;;;18.24;52.57;100406.02;;;;-54
2021/11/13 07:14:04;;;;;;;4.05;3.65;;;;;;;18.27;52.52;100405.09;;;;-54
2021/11/13 07:17:04;;;;;;;3.96;3.56;;;;;;;18.31;52.63;100404.88;;;;-54
2021/11/13 07:20:04;;;;;;;4.16;3.64;;;;;;;18.34;52.58;100406.72;;;;-54
2021/11/13 07:23:04;;;;;;;3.93;3.53;;;;;;;18.38;52.62;100398.86;;;;-55
2021/11/13 07:26:03;;;;;;;3.99;3.57;;;;;;;18.41;52.61;100397.83;;;;-54
2021/11/13 07:29:06;;;;;;;4.91;3.51;;;;;;;18.43;52.59;100398.49;;;;-55
2021/11/13 07:32:04;;;;;;;4.09;3.65;;;;;;;18.45;52.61;100401.30;;;;-55
2021/11/13 07:35:04;;;;;;;3.93;3.28;;;;;;;18.48;52.61;100413.73;;;;-55
2021/11/13 07:38:04;;;;;;;3.83;3.45;;;;;;;18.49;52.61;100420.81;;;;-55
2021/11/13 07:41:03;;;;;;;3.84;3.54;;;;;;;18.50;52.57;100416.91;;;;-54
2021/11/13 07:44:04;;;;;;;4.23;3.51;;;;;;;18.52;52.63;100421.88;;;;-49
2021/11/13 07:47:04;;;;;;;3.55;3.25;;;;;;;18.53;52.61;100425.08;;;;-49
2021/11/13 07:50:04;;;;;;;3.70;3.39;;;;;;;18.55;52.64;100423.03;;;;-49
2021/11/13 07:53:04;;;;;;;4.59;3.23;;;;;;;18.55;52.66;100432.80;;;;-49
2021/11/13 07:56:04;;;;;;;3.79;3.45;;;;;;;18.56;52.65;100435.07;;;;-49
2021/11/13 07:59:04;;;;;;;3.68;3.38;;;;;;;18.57;52.69;100434.98;;;;-50
2021/11/13 08:02:04;;;;;;;3.43;3.13;;;;;;;18.57;52.70;100434.61;;;;-49
2021/11/13 08:05:04;;;;;;;3.74;3.35;;;;;;;18.57;52.70;100432.39;;;;-49
2021/11/13 08:08:04;;;;;;;3.89;3.45;;;;;;;18.57;52.69;100427.23;;;;-49
2021/11/13 08:11:03;;;;;;;3.48;3.18;;;;;;;18.58;52.73;100426.48;;;;-49
2021/11/13 08:14:05;;;;;;;4.09;3.39;;;;;;;18.58;53.09;100428.19;;;;-51
2021/11/13 08:17:03;;;;;;;4.67;3.55;;;;;;;18.61;53.52;100426.09;;;;-51
2021/11/13 08:20:04;;;;;;;4.79;3.34;;;;;;;18.63;53.54;100423.36;;;;-52
2021/11/13 08:23:04;;;;;;;6.39;3.29;;;;;;;18.65;53.62;100419.65;;;;-51
2021/11/13 08:26:04;;;;;;;4.04;3.39;;;;;;;18.68;53.56;100416.69;;;;-51
2021/11/13 08:29:04;;;;;;;4.61;3.39;;;;;;;18.69;53.57;100417.25;;;;-56
2021/11/13 08:32:04;;;;;;;4.57;3.55;;;;;;;18.71;53.71;100418.41;;;;-53
2021/11/13 08:35:04;;;;;;;4.65;3.67;;;;;;;18.72;53.41;100425.33;;;;-47
2021/11/13 08:38:04;;;;;;;3.99;3.53;;;;;;;18.74;53.33;100423.86;;;;-47
2021/11/13 08:41:04;;;;;;;3.94;3.54;;;;;;;18.73;53.25;100429.46;;;;-50
2021/11/13 08:44:03;;;;;;;3.71;3.37;;;;;;;18.73;53.18;100424.59;;;;-49
2021/11/13 08:47:04;;;;;;;4.43;3.23;;;;;;;18.73;53.07;100422.89;;;;-49
2021/11/13 08:50:04;;;;;;;4.62;3.37;;;;;;;18.73;53.00;100425.73;;;;-49
2021/11/13 08:53:04;;;;;;;3.68;3.31;;;;;;;18.72;53.00;100423.22;;;;-49
2021/11/13 08:56:04;;;;;;;4.14;3.49;;;;;;;18.71;52.96;100421.33;;;;-49
2021/11/13 08:59:03;;;;;;;4.62;3.26;;;;;;;18.71;52.86;100417.34;;;;-47
2021/11/13 09:02:05;;;;;;;3.53;3.22;;;;;;;18.70;52.91;100428.96;;;;-46
2021/11/13 09:05:03;;;;;;;3.41;3.09;;;;;;;18.69;52.91;100432.27;;;;-49
2021/11/13 09:08:04;;;;;;;3.29;2.99;;;;;;;18.69;52.85;100419.11;;;;-49
2021/11/13 09:11:04;;;;;;;4.41;3.37;;;;;;;18.68;52.88;100418.06;;;;-46
2021/11/13 09:14:04;;;;;;;3.57;3.24;;;;;;;18.67;52.89;100414.22;;;;-47
2021/11/13 09:17:04;;;;;;;3.53;3.23;;;;;;;18.67;52.87;100404.00;;;;-51
2021/11/13 09:20:03;;;;;;;3.95;3.33;;;;;;;18.66;52.87;100401.16;;;;-47
2021/11/13 09:23:05;;;;;;;3.50;3.20;;;;;;;18.66;52.88;100396.62;;;;-47
2021/11/13 09:26:06;;;;;;;3.37;3.07;;;;;;;18.65;52.95;100396.76;;;;-47
2021/11/13 09:29:05;;;;;;;3.81;3.02;;;;;;;18.64;52.87;100390.67;;;;-47
2021/11/13 09:32:04;;;;;;;3.56;3.20;;;;;;;18.63;52.91;100395.35;;;;-47
2021/11/13 09:35:03;;;;;;;3.51;2.98;;;;;;;18.63;52.90;100392.44;;;;-47
2021/11/13 09:38:04;;;;;;;3.60;3.30;;;;;;;18.62;52.88;100392.28;;;;-47
2021/11/13 09:41:03;;;;;;;3.53;3.09;;;;;;;18.62;52.81;100390.58;;;;-47
2021/11/13 09:44:04;;;;;;;3.25;2.97;;;;;;;18.62;52.78;100385.14;;;;-47
2021/11/13 09:47:05;;;;;;;3.51;3.21;;;;;;;18.62;52.81;100382.55;;;;-47
2021/11/13 09:56:55;;;;;;;3.63;3.14;;;;;;;18.61;52.78;100375.30;;;;-46
2021/11/13 09:59:55;;;;;;;3.45;3.15;;;;;;;18.61;52.78;100375.78;;;;-46
2021/11/13 10:02:55;;;;;;;3.39;3.09;;;;;;;18.62;52.75;100379.05;;;;-51
2021/11/13 10:05:55;;;;;;;3.65;3.35;;;;;;;18.61;52.72;100379.03;;;;-57
2021/11/13 10:08:55;;;;;;;3.31;3.01;;;;;;;18.62;52.76;100378.08;;;;-46
2021/11/13 10:11:55;;;;;;;4.82;3.41;;;;;;;18.62;52.82;100375.07;;;;-50
2021/11/13 10:14:55;;;;;;;3.45;3.15;;;;;;;18.63;53.06;100383.83;;;;-50
2021/11/13 10:17:55;;;;;;;9.65;4.32;;;;;;;18.66;53.11;100394.27;;;;-49
2021/11/13 10:20:55;;;;;;;3.85;3.19;;;;;;;18.70;53.21;100392.77;;;;-48
2021/11/13 10:23:57;;;;;;;5.85;3.71;;;;;;;18.76;52.92;100379.25;;;;-51
2021/11/13 10:26:55;;;;;;;4.15;3.07;;;;;;;18.81;53.13;100377.13;;;;-50
2021/11/13 10:29:55;;;;;;;5.08;3.41;;;;;;;18.85;53.05;100372.04;;;;-49
2021/11/13 10:32:55;;;;;;;5.75;3.65;;;;;;;18.86;52.35;100363.42;;;;-50
2021/11/13 10:35:55;;;;;;;3.71;3.16;;;;;;;18.90;52.54;100362.31;;;;-48
2021/11/13 10:38:55;;;;;;;4.01;3.39;;;;;;;18.95;52.88;100365.22;;;;-50
2021/11/13 10:41:55;;;;;;;4.65;3.29;;;;;;;18.98;53.01;100364.48;;;;-48
2021/11/13 10:44:58;;;;;;;3.48;3.10;;;;;;;19.02;53.13;100367.36;;;;-49
2021/11/13 10:47:55;;;;;;;5.07;3.43;;;;;;;19.05;53.19;100361.71;;;;-50
2021/11/13 10:50:55;;;;;;;3.49;3.19;;;;;;;19.08;53.25;100357.24;;;;-50
2021/11/13 10:53:55;;;;;;;3.41;3.11;;;;;;;19.12;53.30;100347.53;;;;-52
2021/11/13 10:56:55;;;;;;;3.57;3.27;;;;;;;19.15;53.24;100349.16;;;;-51
2021/11/13 10:59:55;;;;;;;4.45;3.40;;;;;;;19.19;53.33;100349.52;;;;-48
2021/11/13 11:02:55;;;;;;;3.41;3.11;;;;;;;19.21;53.42;100348.70;;;;-51
2021/11/13 11:05:56;;;;;;;3.61;3.26;;;;;;;19.26;53.56;100346.39;;;;-49
2021/11/13 11:08:55;;;;;;;4.35;3.30;;;;;;;19.29;53.43;100342.25;;;;-58
2021/11/13 11:11:55;;;;;;;3.51;3.16;;;;;;;19.32;53.44;100339.11;;;;-55
2021/11/13 11:14:55;;;;;;;4.52;3.27;;;;;;;19.36;53.44;100343.45;;;;-56
2021/11/13 11:17:55;;;;;;;3.70;3.39;;;;;;;19.39;53.31;100337.92;;;;-56
2021/11/13 11:20:55;;;;;;;3.58;3.28;;;;;;;19.43;53.28;100330.39;;;;-56
2021/11/13 11:23:55;;;;;;;5.59;3.33;;;;;;;19.45;53.25;100326.09;;;;-53
2021/11/13 11:26:55;;;;;;;3.49;3.19;;;;;;;19.49;53.36;100320.17;;;;-51
2021/11/13 11:29:55;;;;;;;4.57;3.26;;;;;;;19.54;53.59;100311.81;;;;-49
2021/11/13 11:32:55;;;;;;;3.64;3.34;;;;;;;19.56;53.33;100303.77;;;;-50
2021/11/13 11:35:55;;;;;;;4.49;3.10;;;;;;;19.59;53.39;100304.20;;;;-49
2021/11/13 11:38:55;;;;;;;4.95;3.20;;;;;;;19.62;53.29;100303.14;;;;-48
2021/11/13 11:41:55;;;;;;;4.25;3.33;;;;;;;19.67;53.35;100294.28;;;;-49
2021/11/13 11:44:58;;;;;;;3.53;3.02;;;;;;;19.73;53.49;100296.45;;;;-47
2021/11/13 11:47:55;;;;;;;3.52;2.95;;;;;;;19.74;53.23;100296.64;;;;-48
2021/11/13 11:50:55;;;;;;;5.08;3.30;;;;;;;19.77;53.23;100294.34;;;;-51
2021/11/13 11:53:59;;;;;;;3.83;3.34;;;;;;;19.79;53.15;100292.89;;;;-50
2021/11/13 11:56:55;;;;;;;3.60;3.30;;;;;;;19.82;53.20;100291.94;;;;-50
2021/11/13 11:59:57;;;;;;;3.42;2.93;;;;;;;19.84;53.24;100292.34;;;;-46
2021/11/13 12:02:57;;;;;;;5.07;3.21;;;;;;;19.86;53.07;100291.05;;;;-53
2021/11/13 12:05:55;;;;;;;3.85;3.17;;;;;;;19.89;53.25;100291.37;;;;-51
2021/11/13 12:08:55;;;;;;;3.58;3.23;;;;;;;19.89;53.28;100286.33;;;;-48
2021/11/13 12:11:55;;;;;;;3.47;3.17;;;;;;;19.91;53.18;100284.38;;;;-53
2021/11/13 12:15:00;;;;;;;3.37;3.04;;;;;;;19.94;53.30;100288.03;;;;-54
2021/11/13 12:17:56;;;;;;;9.37;3.47;;;;;;;19.94;52.92;100283.75;;;;-55
2021/11/13 12:20:55;;;;;;;3.21;2.91;;;;;;;19.95;52.86;100280.41;;;;-54
2021/11/13 12:23:55;;;;;;;3.36;3.06;;;;;;;19.96;52.81;100280.40;;;;-55
2021/11/13 12:26:55;;;;;;;3.37;2.83;;;;;;;19.95;52.83;100280.31;;;;-55
2021/11/13 12:29:55;;;;;;;3.39;3.09;;;;;;;19.95;52.81;100277.23;;;;-54
2021/11/13 12:32:55;;;;;;;3.98;2.87;;;;;;;19.99;52.91;100273.75;;;;-52
2021/11/13 12:35:55;;;;;;;3.43;3.13;;;;;;;19.99;53.18;100270.66;;;;-49
2021/11/13 12:38:55;;;;;;;4.13;3.17;;;;;;;20.01;53.29;100270.74;;;;-48
2021/11/13 12:41:55;;;;;;;3.20;2.90;;;;;;;20.02;53.13;100271.86;;;;-48
2021/11/13 12:44:55;;;;;;;4.11;3.32;;;;;;;20.05;52.90;100270.81;;;;-47
2021/11/13 12:47:55;;;;;;;3.43;3.09;;;;;;;20.07;52.80;100268.96;;;;-47
2021/11/13 12:50:55;;;;;;;3.42;3.12;;;;;;;20.08;52.77;100265.28;;;;-47
2021/11/13 12:53:55;;;;;;;3.13;2.83;;;;;;;20.09;52.76;100269.28;;;;-52
2021/11/13 12:56:55;;;;;;;3.23;2.93;;;;;;;20.12;52.70;100266.11;;;;-52
2021/11/13 12:59:55;;;;;;;4.26;3.04;;;;;;;20.13;52.62;100262.12;;;;-52
2021/11/13 13:02:55;;;;;;;3.55;3.11;;;;;;;20.15;52.61;100258.87;;;;-52
2021/11/13 13:05:55;;;;;;;3.53;3.01;;;;;;;20.17;52.58;100257.98;;;;-62
2021/11/13 13:08:55;;;;;;;3.38;3.08;;;;;;;20.18;52.61;100252.84;;;;-62
2021/11/13 13:11:56;;;;;;;3.75;2.95;;;;;;;20.20;52.54;100254.55;;;;-52
2021/11/13 13:14:55;;;;;;;3.34;3.04;;;;;;;20.21;52.51;100255.92;;;;-52
2021/11/13 13:17:55;;;;;;;3.26;2.95;;;;;;;20.22;52.51;100257.65;;;;-51
2021/11/13 13:20:55;;;;;;;3.48;3.18;;;;;;;20.26;52.51;100256.75;;;;-54
2021/11/13 13:23:55;;;;;;;3.43;3.02;;;;;;;20.28;52.68;100257.24;;;;-53
2021/11/13 13:26:55;;;;;;;5.18;3.07;;;;;;;20.31;52.62;100259.09;;;;-54
2021/11/13 13:29:55;;;;;;;3.49;2.97;;;;;;;20.34;52.69;100255.78;;;;-54
2021/11/13 13:32:56;;;;;;;3.93;3.23;;;;;;;20.35;52.84;100252.33;;;;-49
2021/11/13 13:35:55;;;;;;;4.13;3.14;;;;;;;20.39;52.98;100250.80;;;;-50
2021/11/13 13:38:56;;;;;;;3.69;3.22;;;;;;;20.43;52.88;100250.95;;;;-49
2021/11/13 13:41:55;;;;;;;4.59;3.25;;;;;;;20.44;52.98;100244.86;;;;-50
2021/11/13 13:44:55;;;;;;;4.56;3.06;;;;;;;20.48;52.81;100248.77;;;;-54
2021/11/13 13:47:55;;;;;;;3.20;2.90;;;;;;;20.50;52.82;100248.50;;;;-53
2021/11/13 13:50:55;;;;;;;3.51;3.11;;;;;;;20.52;52.78;100251.18;;;;-53
2021/11/13 13:53:55;;;;;;;3.41;3.11;;;;;;;20.54;52.78;100245.99;;;;-54
2021/11/13 13:56:56;;;;;;;3.50;3.20;;;;;;;20.56;52.80;100245.47;;;;-47
2021/11/13 13:59:55;;;;;;;3.32;2.98;;;;;;;20.58;52.80;100246.97;;;;-48
2021/11/13 14:02:55;;;;;;;3.61;3.22;;;;;;;20.61;52.77;100244.68;;;;-45
2021/11/13 14:05:55;;;;;;;3.63;3.33;;;;;;;20.61;52.77;100242.83;;;;-50
2021/11/13 14:08:55;;;;;;;4.26;3.36;;;;;;;20.66;52.59;100245.41;;;;-46
2021/11/13 14:11:55;;;;;;;4.62;3.26;;;;;;;20.65;52.37;100242.33;;;;-47
2021/11/13 14:14:56;;;;;;;3.62;3.13;;;;;;;20.64;52.29;100245.25;;;;-53
2021/11/13 14:17:55;;;;;;;3.73;3.26;;;;;;;20.66;52.26;100247.94;;;;-52
2021/11/13 14:20:55;;;;;;;4.31;3.29;;;;;;;20.65;52.24;100244.28;;;;-52
2021/11/13 14:23:55;;;;;;;6.15;3.42;;;;;;;20.64;51.62;100248.83;;;;-51
2021/11/13 14:26:55;;;;;;;4.01;3.32;;;;;;;20.67;52.16;100249.06;;;;-46
2021/11/13 14:33:55;;;;;;;4.59;3.08;;;;;;;20.72;52.29;100246.55;;;;-48
2021/11/13 14:36:55;;;;;;;4.18;3.37;;;;;;;20.76;52.39;100250.53;;;;-59
2021/11/13 14:39:55;;;;;;;3.66;3.29;;;;;;;20.78;52.47;100248.81;;;;-58
2021/11/13 14:42:55;;;;;;;3.77;3.29;;;;;;;20.78;52.39;100251.81;;;;-55
2021/11/13 14:45:55;;;;;;;3.53;3.23;;;;;;;20.78;52.52;100251.09;;;;-55
2021/11/13 14:48:55;;;;;;;3.49;3.19;;;;;;;20.80;52.55;100250.28;;;;-53
2021/11/13 14:51:55;;;;;;;4.26;3.37;;;;;;;20.77;51.86;100251.33;;;;-51
2021/11/13 14:54:55;;;;;;;7.09;4.91;;;;;;;20.68;50.50;100254.13;;;;-56
2021/11/13 14:57:55;;;;;;;7.35;4.25;;;;;;;20.70;50.98;100251.11;;;;-56
2021/11/13 15:00:55;;;;;;;4.10;3.70;;;;;;;20.73;51.38;100255.10;;;;-56
2021/11/13 15:03:55;;;;;;;6.59;4.11;;;;;;;20.75;51.44;100250.95;;;;-50
2021/11/13 15:06:55;;;;;;;5.11;3.73;;;;;;;20.78;51.51;100254.59;;;;-60
2021/11/13 15:09:55;;;;;;;5.98;3.93;;;;;;;20.81;51.58;100252.38;;;;-60
2021/11/13 15:12:55;;;;;;;4.76;4.07;;;;;;;20.84;51.64;100254.10;;;;-61
2021/11/13 15:15:55;;;;;;;5.42;4.11;;;;;;;20.84;51.79;100254.27;;;;-50
2021/11/13 15:18:55;;;;;;;6.02;3.79;;;;;;;20.84;51.61;100255.23;;;;-48
2021/11/13 15:21:55;;;;;;;6.25;3.93;;;;;;;20.84;51.50;100257.20;;;;-48
2021/11/13 15:24:55;;;;;;;4.97;3.70;;;;;;;20.82;51.43;100254.84;;;;-49
2021/11/13 15:27:55;;;;;;;4.35;3.67;;;;;;;20.81;51.40;100256.28;;;;-48
2021/11/13 15:30:55;;;;;;;4.93;3.67;;;;;;;20.81;51.38;100257.35;;;;-54
2021/11/13 15:33:55;;;;;;;7.15;3.91;;;;;;;20.79;51.17;100258.00;;;;-55
2021/11/13 15:36:55;;;;;;;6.28;4.34;;;;;;;20.74;50.48;100257.21;;;;-54
2021/11/13 15:39:55;;;;;;;7.02;4.31;;;;;;;20.75;50.86;100258.82;;;;-59
2021/11/13 15:42:55;;;;;;;6.72;4.14;;;;;;;20.77;51.06;100259.48;;;;-56
2021/11/13 15:45:55;;;;;;;5.47;4.20;;;;;;;20.83;51.25;100266.55;;;;-52
2021/11/13 15:48:56;;;;;;;8.54;4.29;;;;;;;20.85;51.31;100262.72;;;;-51
2021/11/13 15:51:55;;;;;;;6.03;4.09;;;;;;;20.88;51.51;100261.34;;;;-54
2021/11/13 15:55:05;;;;;;;4.73;4.07;;;;;;;20.91;51.65;100257.48;;;;-50
2021/11/13 15:57:55;;;;;;;4.95;4.08;;;;;;;20.93;51.62;100261.64;;;;-48
2021/11/13 16:00:55;;;;;;;4.27;3.65;;;;;;;20.95;51.77;100265.62;;;;-50
2021/11/13 16:03:55;;;;;;;5.05;3.77;;;;;;;20.98;51.91;100259.75;;;;-48
2021/11/13 16:06:55;;;;;;;4.41;4.00;;;;;;;21.00;52.01;100256.23;;;;-49
2021/11/13 16:09:55;;;;;;;5.31;3.95;;;;;;;21.03;52.15;100258.35;;;;-51
2021/11/13 16:12:55;;;;;;;4.54;3.81;;;;;;;21.04;52.26;100260.13;;;;-50
2021/11/13 16:15:56;;;;;;;5.01;3.69;;;;;;;21.06;52.08;100262.64;;;;-51
2021/11/13 16:18:55;;;;;;;5.52;3.82;;;;;;;21.05;51.92;100264.86;;;;-49
2021/11/13 16:21:55;;;;;;;6.47;3.92;;;;;;;21.07;51.90;100259.47;;;;-51
2021/11/13 16:24:55;;;;;;;7.08;3.79;;;;;;;21.09;51.93;100264.52;;;;-58
2021/11/13 16:27:55;;;;;;;4.39;3.97;;;;;;;21.11;51.94;100264.76;;;;-53
2021/11/13 16:30:55;;;;;;;5.45;3.78;;;;;;;21.11;51.94;100263.95;;;;-50
2021/11/13 16:33:55;;;;;;;3.93;3.55;;;;;;;21.13;52.03;100267.13;;;;-49
2021/11/13 16:36:56;;;;;;;4.89;3.86;;;;;;;21.15;52.06;100269.47;;;;-52
2021/11/13 16:39:55;;;;;;;4.01;3.67;;;;;;;21.17;52.03;100270.04;;;;-53
2021/11/13 16:42:55;;;;;;;4.17;3.77;;;;;;;21.16;51.92;100271.34;;;;-50
2021/11/13 16:45:55;;;;;;;4.23;3.83;;;;;;;21.16;51.98;100273.53;;;;-52
2021/11/13 16:49:10;;;;;;;5.30;3.67;;;;;;;21.19;52.08;100271.51;;;;-50
2021/11/13 16:51:55;;;;;;;6.37;3.86;;;;;;;21.19;52.01;100276.56;;;;-52
2021/11/13 16:54:55;;;;;;;4.36;3.61;;;;;;;21.19;51.95;100273.54;;;;-56
2021/11/13 16:57:55;;;;;;;4.13;3.73;;;;;;;21.20;52.24;100278.33;;;;-54
2021/11/13 17:00:55;;;;;;;4.83;3.70;;;;;;;21.22;52.08;100283.38;;;;-55
2021/11/13 17:03:55;;;;;;;5.81;3.82;;;;;;;21.24;52.20;100282.97;;;;-63
2021/11/13 17:06:55;;;;;;;4.03;3.61;;;;;;;21.25;52.13;100289.16;;;;-59
2021/11/13 17:09:55;;;;;;;4.21;3.78;;;;;;;21.26;52.21;100287.52;;;;-58
2021/11/13 17:12:55;;;;;;;3.89;3.57;;;;;;;21.26;52.15;100287.52;;;;-50
2021/11/13 17:15:55;;;;;;;5.77;4.00;;;;;;;21.27;52.32;100292.31;;;;-51
2021/11/13 17:18:55;;;;;;;3.85;3.48;;;;;;;21.27;52.38;100290.70;;;;-49
2021/11/13 17:21:55;;;;;;;3.85;3.54;;;;;;;21.28;52.25;100296.15;;;;-51
2021/11/13 17:24:55;;;;;;;4.11;3.63;;;;;;;21.30;52.25;100299.00;;;;-46
2021/11/13 17:27:56;;;;;;;4.37;3.97;;;;;;;21.29;52.17;100301.05;;;;-49
2021/11/13 17:30:56;;;;;;;4.23;3.83;;;;;;;21.28;52.02;100302.75;;;;-48
2021/11/13 17:33:55;;;;;;;3.96;3.66;;;;;;;21.29;52.06;100301.54;;;;-46
2021/11/13 17:36:55;;;;;;;4.13;3.73;;;;;;;21.30;51.98;100303.40;;;;-47
2021/11/13 17:39:56;;;;;;;5.20;3.72;;;;;;;21.30;52.08;100303.56;;;;-45
2021/11/13 17:43:07;;;;;;;4.84;4.00;;;;;;;21.32;52.04;100300.22;;;;-53
2021/11/13 17:45:55;;;;;;;4.27;3.87;;;;;;;21.30;51.83;100299.08;;;;-47
2021/11/13 17:48:55;;;;;;;4.23;3.69;;;;;;;21.28;51.69;100303.49;;;;-47